sensor_id;sensor_type;location;lat;lon;timestamp;P1;durP1;ratioP1;P2;durP2;ratioP2
6791;SDS011;3433;48.730;9.108;2023-03-21T00:02:24;3.03;;;2.60;;
6791;SDS011;3433;48.730;9.108;2023-03-21T00:04:53;2.50;;;2.30;;
6791;SDS011;3433;48.730;9.108;2023-03-21T00:07:19;3.93;;;3.43;;
6791;SDS011;3433;48.730;9.108;2023-03-21T00:09:46;4.97;;;2.60;;
6791;SDS011;3433;48.730;9.108;2023-03-21T00:12:13;4.87;;;3.47;;
6791;SDS011;3433;48.730;9.108;2023-03-21T00:14:41;4.60;;;2.90;;
6791;SDS011;3433;48.730;9.108;2023-03-21T00:17:08;3.78;;;2.80;;
6791;SDS011;3433;48.730;9.108;2023-03-21T00:19:39;4.40;;;2.50;;
6791;SDS011;3433;48.730;9.108;2023-03-21T00:22:07;2.90;;;2.50;;
6791;SDS011;3433;48.730;9.108;2023-03-21T00:24:34;3.33;;;2.50;;
6791;SDS011;3433;48.730;9.108;2023-03-21T00:27:01;3.93;;;2.87;;
6791;SDS011;3433;48.730;9.108;2023-03-21T00:29:28;5.23;;;2.70;;
6791;SDS011;3433;48.730;9.108;2023-03-21T00:31:55;3.40;;;2.70;;
6791;SDS011;3433;48.730;9.108;2023-03-21T00:34:22;3.00;;;2.70;;
6791;SDS011;3433;48.730;9.108;2023-03-21T00:36:49;2.93;;;2.47;;
6791;SDS011;3433;48.730;9.108;2023-03-21T00:39:17;4.00;;;2.80;;
6791;SDS011;3433;48.730;9.108;2023-03-21T00:41:44;2.47;;;2.27;;
6791;SDS011;3433;48.730;9.108;2023-03-21T00:44:12;3.40;;;2.50;;
6791;SDS011;3433;48.730;9.108;2023-03-21T00:46:39;3.50;;;3.20;;
6791;SDS011;3433;48.730;9.108;2023-03-21T00:49:06;4.70;;;3.03;;
6791;SDS011;3433;48.730;9.108;2023-03-21T00:51:33;3.00;;;2.70;;
6791;SDS011;3433;48.730;9.108;2023-03-21T00:54:00;3.10;;;2.80;;
6791;SDS011;3433;48.730;9.108;2023-03-21T00:56:31;3.30;;;2.77;;
6791;SDS011;3433;48.730;9.108;2023-03-21T00:58:57;2.87;;;2.57;;
6791;SDS011;3433;48.730;9.108;2023-03-21T01:01:24;3.97;;;2.37;;
6791;SDS011;3433;48.730;9.108;2023-03-21T01:03:55;3.17;;;2.43;;
6791;SDS011;3433;48.730;9.108;2023-03-21T01:06:28;3.30;;;2.90;;
6791;SDS011;3433;48.730;9.108;2023-03-21T01:08:56;2.90;;;2.57;;
6791;SDS011;3433;48.730;9.108;2023-03-21T01:11:23;2.37;;;2.17;;
6791;SDS011;3433;48.730;9.108;2023-03-21T01:13:54;2.90;;;2.50;;
6791;SDS011;3433;48.730;9.108;2023-03-21T01:16:21;4.77;;;3.33;;
6791;SDS011;3433;48.730;9.108;2023-03-21T01:18:48;4.03;;;2.50;;
6791;SDS011;3433;48.730;9.108;2023-03-21T01:21:15;6.30;;;2.70;;
6791;SDS011;3433;48.730;9.108;2023-03-21T01:23:43;2.77;;;2.57;;
6791;SDS011;3433;48.730;9.108;2023-03-21T01:26:10;5.23;;;3.43;;
6791;SDS011;3433;48.730;9.108;2023-03-21T01:28:39;4.07;;;3.30;;
6791;SDS011;3433;48.730;9.108;2023-03-21T01:31:09;3.80;;;2.67;;
6791;SDS011;3433;48.730;9.108;2023-03-21T01:33:37;3.60;;;3.30;;
6791;SDS011;3433;48.730;9.108;2023-03-21T01:36:05;4.53;;;2.70;;
6791;SDS011;3433;48.730;9.108;2023-03-21T01:38:32;2.83;;;2.60;;
6791;SDS011;3433;48.730;9.108;2023-03-21T01:40:59;3.20;;;2.90;;
6791;SDS011;3433;48.730;9.108;2023-03-21T01:43:27;2.97;;;2.67;;
6791;SDS011;3433;48.730;9.108;2023-03-21T01:46:07;3.40;;;3.10;;
6791;SDS011;3433;48.730;9.108;2023-03-21T01:49:03;3.20;;;2.80;;
6791;SDS011;3433;48.730;9.108;2023-03-21T01:51:38;3.70;;;2.73;;
6791;SDS011;3433;48.730;9.108;2023-03-21T01:54:10;3.87;;;2.87;;
6791;SDS011;3433;48.730;9.108;2023-03-21T01:56:43;2.80;;;2.50;;
6791;SDS011;3433;48.730;9.108;2023-03-21T01:59:13;5.37;;;3.00;;
6791;SDS011;3433;48.730;9.108;2023-03-21T02:01:46;3.13;;;2.83;;
6791;SDS011;3433;48.730;9.108;2023-03-21T02:04:16;3.23;;;2.93;;
6791;SDS011;3433;48.730;9.108;2023-03-21T02:06:53;4.00;;;2.90;;
6791;SDS011;3433;48.730;9.108;2023-03-21T02:09:24;4.50;;;2.70;;
6791;SDS011;3433;48.730;9.108;2023-03-21T02:11:56;4.20;;;3.57;;
6791;SDS011;3433;48.730;9.108;2023-03-21T02:14:23;5.53;;;2.90;;
6791;SDS011;3433;48.730;9.108;2023-03-21T02:16:51;3.57;;;2.60;;
6791;SDS011;3433;48.730;9.108;2023-03-21T02:19:35;3.87;;;3.07;;
6791;SDS011;3433;48.730;9.108;2023-03-21T02:25:51;3.60;;;3.30;;
6791;SDS011;3433;48.730;9.108;2023-03-21T02:28:39;3.17;;;2.50;;
6791;SDS011;3433;48.730;9.108;2023-03-21T02:31:27;5.20;;;2.83;;
6791;SDS011;3433;48.730;9.108;2023-03-21T02:37:05;4.00;;;3.03;;
6791;SDS011;3433;48.730;9.108;2023-03-21T02:39:49;5.60;;;3.00;;
6791;SDS011;3433;48.730;9.108;2023-03-21T02:42:27;3.20;;;2.90;;
6791;SDS011;3433;48.730;9.108;2023-03-21T02:44:59;3.83;;;3.10;;
6791;SDS011;3433;48.730;9.108;2023-03-21T02:47:29;3.50;;;3.10;;
6791;SDS011;3433;48.730;9.108;2023-03-21T02:50:03;3.50;;;3.20;;
6791;SDS011;3433;48.730;9.108;2023-03-21T02:52:35;4.10;;;3.10;;
6791;SDS011;3433;48.730;9.108;2023-03-21T02:55:06;3.23;;;2.93;;
6791;SDS011;3433;48.730;9.108;2023-03-21T02:57:38;4.40;;;3.20;;
6791;SDS011;3433;48.730;9.108;2023-03-21T03:00:08;3.10;;;2.87;;
6791;SDS011;3433;48.730;9.108;2023-03-21T03:02:38;3.53;;;3.23;;
6791;SDS011;3433;48.730;9.108;2023-03-21T03:05:13;4.07;;;2.97;;
6791;SDS011;3433;48.730;9.108;2023-03-21T03:07:45;3.43;;;2.90;;
6791;SDS011;3433;48.730;9.108;2023-03-21T03:10:51;6.23;;;3.17;;
6791;SDS011;3433;48.730;9.108;2023-03-21T03:13:30;3.93;;;2.93;;
6791;SDS011;3433;48.730;9.108;2023-03-21T03:16:09;3.90;;;3.30;;
6791;SDS011;3433;48.730;9.108;2023-03-21T03:18:47;3.90;;;2.70;;
6791;SDS011;3433;48.730;9.108;2023-03-21T03:21:19;2.97;;;2.77;;
6791;SDS011;3433;48.730;9.108;2023-03-21T03:23:53;3.00;;;2.70;;
6791;SDS011;3433;48.730;9.108;2023-03-21T03:26:25;5.27;;;3.80;;
6791;SDS011;3433;48.730;9.108;2023-03-21T03:28:57;3.40;;;3.10;;
6791;SDS011;3433;48.730;9.108;2023-03-21T03:31:28;3.57;;;2.97;;
6791;SDS011;3433;48.730;9.108;2023-03-21T03:33:59;4.00;;;3.00;;
6791;SDS011;3433;48.730;9.108;2023-03-21T03:36:32;3.30;;;2.90;;
6791;SDS011;3433;48.730;9.108;2023-03-21T03:39:05;4.00;;;2.80;;
6791;SDS011;3433;48.730;9.108;2023-03-21T03:41:35;3.03;;;2.60;;
6791;SDS011;3433;48.730;9.108;2023-03-21T03:44:07;4.20;;;3.77;;
6791;SDS011;3433;48.730;9.108;2023-03-21T03:46:38;5.40;;;2.90;;
6791;SDS011;3433;48.730;9.108;2023-03-21T03:49:11;6.87;;;3.57;;
6791;SDS011;3433;48.730;9.108;2023-03-21T03:51:41;4.33;;;3.13;;
6791;SDS011;3433;48.730;9.108;2023-03-21T03:54:16;2.97;;;2.63;;
6791;SDS011;3433;48.730;9.108;2023-03-21T03:56:47;2.63;;;2.43;;
6791;SDS011;3433;48.730;9.108;2023-03-21T03:59:15;3.80;;;3.07;;
6791;SDS011;3433;48.730;9.108;2023-03-21T04:01:43;4.60;;;3.10;;
6791;SDS011;3433;48.730;9.108;2023-03-21T04:04:10;2.80;;;2.50;;
6791;SDS011;3433;48.730;9.108;2023-03-21T04:06:37;3.53;;;2.90;;
6791;SDS011;3433;48.730;9.108;2023-03-21T04:09:05;3.23;;;2.80;;
6791;SDS011;3433;48.730;9.108;2023-03-21T04:11:34;3.57;;;2.63;;
6791;SDS011;3433;48.730;9.108;2023-03-21T04:14:01;4.60;;;3.20;;
6791;SDS011;3433;48.730;9.108;2023-03-21T04:16:28;5.53;;;2.90;;
6791;SDS011;3433;48.730;9.108;2023-03-21T04:18:56;4.10;;;3.43;;
6791;SDS011;3433;48.730;9.108;2023-03-21T04:21:23;3.83;;;3.40;;
6791;SDS011;3433;48.730;9.108;2023-03-21T04:23:51;3.03;;;2.73;;
6791;SDS011;3433;48.730;9.108;2023-03-21T04:26:19;5.17;;;3.03;;
6791;SDS011;3433;48.730;9.108;2023-03-21T04:28:47;4.40;;;3.40;;
6791;SDS011;3433;48.730;9.108;2023-03-21T04:31:14;4.27;;;3.50;;
6791;SDS011;3433;48.730;9.108;2023-03-21T04:33:42;4.23;;;3.03;;
6791;SDS011;3433;48.730;9.108;2023-03-21T04:36:09;5.10;;;3.50;;
6791;SDS011;3433;48.730;9.108;2023-03-21T04:38:48;4.63;;;3.33;;
6791;SDS011;3433;48.730;9.108;2023-03-21T04:41:15;3.70;;;3.30;;
6791;SDS011;3433;48.730;9.108;2023-03-21T04:43:42;6.77;;;2.90;;
6791;SDS011;3433;48.730;9.108;2023-03-21T04:46:11;4.90;;;3.20;;
6791;SDS011;3433;48.730;9.108;2023-03-21T04:48:38;6.30;;;3.00;;
6791;SDS011;3433;48.730;9.108;2023-03-21T04:51:05;5.00;;;3.13;;
6791;SDS011;3433;48.730;9.108;2023-03-21T04:53:32;2.87;;;2.60;;
6791;SDS011;3433;48.730;9.108;2023-03-21T04:55:59;3.00;;;2.70;;
6791;SDS011;3433;48.730;9.108;2023-03-21T04:58:26;3.17;;;2.87;;
6791;SDS011;3433;48.730;9.108;2023-03-21T05:00:54;3.83;;;3.50;;
6791;SDS011;3433;48.730;9.108;2023-03-21T05:03:22;4.00;;;3.43;;
6791;SDS011;3433;48.730;9.108;2023-03-21T05:05:49;5.50;;;3.00;;
6791;SDS011;3433;48.730;9.108;2023-03-21T05:08:16;4.03;;;3.40;;
6791;SDS011;3433;48.730;9.108;2023-03-21T05:10:43;3.40;;;3.10;;
6791;SDS011;3433;48.730;9.108;2023-03-21T05:13:10;6.67;;;3.40;;
6791;SDS011;3433;48.730;9.108;2023-03-21T05:15:37;3.90;;;3.07;;
6791;SDS011;3433;48.730;9.108;2023-03-21T05:18:04;2.93;;;2.70;;
6791;SDS011;3433;48.730;9.108;2023-03-21T05:20:37;3.80;;;3.20;;
6791;SDS011;3433;48.730;9.108;2023-03-21T05:23:07;4.60;;;3.40;;
6791;SDS011;3433;48.730;9.108;2023-03-21T05:25:34;4.40;;;3.57;;
6791;SDS011;3433;48.730;9.108;2023-03-21T05:28:02;5.23;;;3.13;;
6791;SDS011;3433;48.730;9.108;2023-03-21T05:30:29;4.57;;;3.40;;
6791;SDS011;3433;48.730;9.108;2023-03-21T05:32:56;4.67;;;3.63;;
6791;SDS011;3433;48.730;9.108;2023-03-21T05:35:23;4.50;;;3.20;;
6791;SDS011;3433;48.730;9.108;2023-03-21T05:37:51;4.30;;;3.50;;
6791;SDS011;3433;48.730;9.108;2023-03-21T05:40:18;4.73;;;4.07;;
6791;SDS011;3433;48.730;9.108;2023-03-21T05:42:45;5.63;;;3.70;;
6791;SDS011;3433;48.730;9.108;2023-03-21T05:45:13;5.00;;;4.27;;
6791;SDS011;3433;48.730;9.108;2023-03-21T05:47:40;6.80;;;4.20;;
6791;SDS011;3433;48.730;9.108;2023-03-21T05:50:07;5.63;;;3.90;;
6791;SDS011;3433;48.730;9.108;2023-03-21T05:52:35;4.90;;;3.37;;
6791;SDS011;3433;48.730;9.108;2023-03-21T05:55:04;4.83;;;3.93;;
6791;SDS011;3433;48.730;9.108;2023-03-21T05:57:31;5.00;;;3.47;;
6791;SDS011;3433;48.730;9.108;2023-03-21T06:00:03;4.50;;;4.10;;
6791;SDS011;3433;48.730;9.108;2023-03-21T06:02:31;5.07;;;3.30;;
6791;SDS011;3433;48.730;9.108;2023-03-21T06:04:58;5.23;;;3.43;;
6791;SDS011;3433;48.730;9.108;2023-03-21T06:07:24;4.50;;;3.10;;
6791;SDS011;3433;48.730;9.108;2023-03-21T06:09:51;5.40;;;3.70;;
6791;SDS011;3433;48.730;9.108;2023-03-21T06:12:20;3.93;;;3.33;;
6791;SDS011;3433;48.730;9.108;2023-03-21T06:14:47;3.80;;;3.40;;
6791;SDS011;3433;48.730;9.108;2023-03-21T06:17:13;5.00;;;3.20;;
6791;SDS011;3433;48.730;9.108;2023-03-21T06:19:41;4.27;;;3.50;;
6791;SDS011;3433;48.730;9.108;2023-03-21T06:22:08;3.77;;;3.40;;
6791;SDS011;3433;48.730;9.108;2023-03-21T06:24:34;5.03;;;3.70;;
6791;SDS011;3433;48.730;9.108;2023-03-21T06:27:01;6.77;;;4.20;;
6791;SDS011;3433;48.730;9.108;2023-03-21T06:29:30;9.27;;;5.17;;
6791;SDS011;3433;48.730;9.108;2023-03-21T06:31:57;7.73;;;4.70;;
6791;SDS011;3433;48.730;9.108;2023-03-21T06:34:24;5.53;;;4.07;;
6791;SDS011;3433;48.730;9.108;2023-03-21T06:36:51;5.40;;;3.73;;
6791;SDS011;3433;48.730;9.108;2023-03-21T06:39:18;7.33;;;3.77;;
6791;SDS011;3433;48.730;9.108;2023-03-21T06:41:45;5.40;;;3.43;;
6791;SDS011;3433;48.730;9.108;2023-03-21T06:44:12;4.43;;;3.77;;
6791;SDS011;3433;48.730;9.108;2023-03-21T06:46:40;4.13;;;3.73;;
6791;SDS011;3433;48.730;9.108;2023-03-21T06:49:07;5.47;;;4.03;;
6791;SDS011;3433;48.730;9.108;2023-03-21T06:51:34;9.10;;;4.20;;
6791;SDS011;3433;48.730;9.108;2023-03-21T06:54:01;5.70;;;3.83;;
6791;SDS011;3433;48.730;9.108;2023-03-21T06:56:28;8.23;;;3.83;;
6791;SDS011;3433;48.730;9.108;2023-03-21T06:58:55;6.80;;;4.17;;
6791;SDS011;3433;48.730;9.108;2023-03-21T07:01:22;4.87;;;3.37;;
6791;SDS011;3433;48.730;9.108;2023-03-21T07:03:53;5.23;;;3.80;;
6791;SDS011;3433;48.730;9.108;2023-03-21T07:06:21;4.67;;;3.80;;
6791;SDS011;3433;48.730;9.108;2023-03-21T07:08:50;3.57;;;2.90;;
6791;SDS011;3433;48.730;9.108;2023-03-21T07:11:17;5.50;;;3.40;;
6791;SDS011;3433;48.730;9.108;2023-03-21T07:13:45;4.40;;;3.57;;
6791;SDS011;3433;48.730;9.108;2023-03-21T07:16:12;4.40;;;3.03;;
6791;SDS011;3433;48.730;9.108;2023-03-21T07:18:40;3.50;;;3.20;;
6791;SDS011;3433;48.730;9.108;2023-03-21T07:21:08;3.27;;;2.50;;
6791;SDS011;3433;48.730;9.108;2023-03-21T07:23:35;3.97;;;2.83;;
6791;SDS011;3433;48.730;9.108;2023-03-21T07:26:03;6.60;;;3.23;;
6791;SDS011;3433;48.730;9.108;2023-03-21T07:28:31;3.17;;;2.33;;
6791;SDS011;3433;48.730;9.108;2023-03-21T07:30:59;4.30;;;2.67;;
6791;SDS011;3433;48.730;9.108;2023-03-21T07:33:28;4.83;;;2.57;;
6791;SDS011;3433;48.730;9.108;2023-03-21T07:35:56;7.90;;;3.13;;
6791;SDS011;3433;48.730;9.108;2023-03-21T07:38:24;5.00;;;2.47;;
6791;SDS011;3433;48.730;9.108;2023-03-21T07:40:52;2.93;;;2.63;;
6791;SDS011;3433;48.730;9.108;2023-03-21T07:43:19;3.37;;;2.80;;
6791;SDS011;3433;48.730;9.108;2023-03-21T07:45:46;4.07;;;2.40;;
6791;SDS011;3433;48.730;9.108;2023-03-21T07:48:13;5.37;;;3.80;;
6791;SDS011;3433;48.730;9.108;2023-03-21T07:50:41;6.87;;;2.37;;
6791;SDS011;3433;48.730;9.108;2023-03-21T07:53:08;3.87;;;2.80;;
6791;SDS011;3433;48.730;9.108;2023-03-21T07:55:36;5.07;;;2.37;;
6791;SDS011;3433;48.730;9.108;2023-03-21T07:58:03;2.87;;;2.37;;
6791;SDS011;3433;48.730;9.108;2023-03-21T08:00:30;5.30;;;2.50;;
6791;SDS011;3433;48.730;9.108;2023-03-21T08:02:58;3.23;;;2.50;;
6791;SDS011;3433;48.730;9.108;2023-03-21T08:05:26;3.33;;;2.03;;
6791;SDS011;3433;48.730;9.108;2023-03-21T08:07:54;2.43;;;2.23;;
6791;SDS011;3433;48.730;9.108;2023-03-21T08:10:21;5.30;;;2.73;;
6791;SDS011;3433;48.730;9.108;2023-03-21T08:12:50;3.33;;;2.63;;
6791;SDS011;3433;48.730;9.108;2023-03-21T08:15:17;3.77;;;2.43;;
6791;SDS011;3433;48.730;9.108;2023-03-21T08:17:44;3.87;;;2.77;;
6791;SDS011;3433;48.730;9.108;2023-03-21T08:20:12;3.77;;;3.27;;
6791;SDS011;3433;48.730;9.108;2023-03-21T08:22:41;6.87;;;3.03;;
6791;SDS011;3433;48.730;9.108;2023-03-21T08:25:10;4.30;;;2.90;;
6791;SDS011;3433;48.730;9.108;2023-03-21T08:27:38;2.80;;;2.40;;
6791;SDS011;3433;48.730;9.108;2023-03-21T08:30:08;3.35;;;2.58;;
6791;SDS011;3433;48.730;9.108;2023-03-21T08:32:37;2.60;;;2.10;;
6791;SDS011;3433;48.730;9.108;2023-03-21T08:35:06;3.70;;;2.40;;
6791;SDS011;3433;48.730;9.108;2023-03-21T08:37:35;4.60;;;2.30;;
6791;SDS011;3433;48.730;9.108;2023-03-21T08:40:02;3.90;;;2.27;;
6791;SDS011;3433;48.730;9.108;2023-03-21T08:42:32;2.53;;;2.33;;
6791;SDS011;3433;48.730;9.108;2023-03-21T08:45:00;2.70;;;2.33;;
6791;SDS011;3433;48.730;9.108;2023-03-21T08:47:29;3.80;;;2.10;;
6791;SDS011;3433;48.730;9.108;2023-03-21T08:49:57;4.37;;;2.57;;
6791;SDS011;3433;48.730;9.108;2023-03-21T08:52:24;15.90;;;3.57;;
6791;SDS011;3433;48.730;9.108;2023-03-21T08:54:51;10.77;;;2.50;;
6791;SDS011;3433;48.730;9.108;2023-03-21T08:57:18;6.83;;;2.43;;
6791;SDS011;3433;48.730;9.108;2023-03-21T08:59:45;2.30;;;2.10;;
6791;SDS011;3433;48.730;9.108;2023-03-21T09:02:12;5.03;;;1.83;;
6791;SDS011;3433;48.730;9.108;2023-03-21T09:04:41;2.70;;;1.90;;
6791;SDS011;3433;48.730;9.108;2023-03-21T09:07:08;2.70;;;2.07;;
6791;SDS011;3433;48.730;9.108;2023-03-21T09:09:36;2.20;;;2.00;;
6791;SDS011;3433;48.730;9.108;2023-03-21T09:12:03;3.70;;;1.70;;
6791;SDS011;3433;48.730;9.108;2023-03-21T09:14:30;3.00;;;1.97;;
6791;SDS011;3433;48.730;9.108;2023-03-21T09:16:58;2.27;;;2.07;;
6791;SDS011;3433;48.730;9.108;2023-03-21T09:19:26;4.93;;;2.40;;
6791;SDS011;3433;48.730;9.108;2023-03-21T09:21:55;4.37;;;2.30;;
6791;SDS011;3433;48.730;9.108;2023-03-21T09:24:40;2.97;;;1.80;;
6791;SDS011;3433;48.730;9.108;2023-03-21T09:27:28;1.60;;;1.50;;
6791;SDS011;3433;48.730;9.108;2023-03-21T09:30:16;2.77;;;1.77;;
6791;SDS011;3433;48.730;9.108;2023-03-21T09:33:04;3.23;;;2.07;;
6791;SDS011;3433;48.730;9.108;2023-03-21T09:35:57;3.03;;;1.63;;
6791;SDS011;3433;48.730;9.108;2023-03-21T09:38:46;2.13;;;2.03;;
6791;SDS011;3433;48.730;9.108;2023-03-21T09:41:38;1.70;;;1.50;;
6791;SDS011;3433;48.730;9.108;2023-03-21T09:44:38;2.20;;;1.97;;
6791;SDS011;3433;48.730;9.108;2023-03-21T09:47:31;3.03;;;2.03;;
6791;SDS011;3433;48.730;9.108;2023-03-21T09:50:34;2.03;;;1.83;;
6791;SDS011;3433;48.730;9.108;2023-03-21T09:53:24;2.70;;;2.00;;
6791;SDS011;3433;48.730;9.108;2023-03-21T09:56:17;2.70;;;1.77;;
6791;SDS011;3433;48.730;9.108;2023-03-21T09:59:05;1.70;;;1.60;;
6791;SDS011;3433;48.730;9.108;2023-03-21T10:01:54;1.90;;;1.70;;
6791;SDS011;3433;48.730;9.108;2023-03-21T10:04:44;3.30;;;2.10;;
6791;SDS011;3433;48.730;9.108;2023-03-21T10:07:32;2.07;;;1.40;;
6791;SDS011;3433;48.730;9.108;2023-03-21T10:10:26;1.27;;;1.17;;
6791;SDS011;3433;48.730;9.108;2023-03-21T10:13:18;1.67;;;1.50;;
6791;SDS011;3433;48.730;9.108;2023-03-21T10:16:09;1.70;;;1.60;;
6791;SDS011;3433;48.730;9.108;2023-03-21T10:19:02;1.90;;;1.40;;
6791;SDS011;3433;48.730;9.108;2023-03-21T10:21:54;1.63;;;1.30;;
6791;SDS011;3433;48.730;9.108;2023-03-21T10:24:42;1.53;;;1.43;;
6791;SDS011;3433;48.730;9.108;2023-03-21T10:27:29;1.83;;;1.57;;
6791;SDS011;3433;48.730;9.108;2023-03-21T10:30:24;1.20;;;1.10;;
6791;SDS011;3433;48.730;9.108;2023-03-21T10:33:16;2.20;;;1.27;;
6791;SDS011;3433;48.730;9.108;2023-03-21T10:36:07;1.97;;;1.77;;
6791;SDS011;3433;48.730;9.108;2023-03-21T10:39:00;1.40;;;1.30;;
6791;SDS011;3433;48.730;9.108;2023-03-21T10:41:50;2.73;;;1.70;;
6791;SDS011;3433;48.730;9.108;2023-03-21T10:44:37;2.27;;;1.20;;
6791;SDS011;3433;48.730;9.108;2023-03-21T10:47:26;3.53;;;1.03;;
6791;SDS011;3433;48.730;9.108;2023-03-21T10:50:16;1.50;;;1.10;;
6791;SDS011;3433;48.730;9.108;2023-03-21T10:53:13;2.40;;;1.73;;
6791;SDS011;3433;48.730;9.108;2023-03-21T10:56:05;1.90;;;1.37;;
6791;SDS011;3433;48.730;9.108;2023-03-21T10:58:57;1.60;;;1.50;;
6791;SDS011;3433;48.730;9.108;2023-03-21T11:01:47;2.17;;;1.20;;
6791;SDS011;3433;48.730;9.108;2023-03-21T11:04:37;1.30;;;1.20;;
6791;SDS011;3433;48.730;9.108;2023-03-21T11:07:26;0.83;;;0.83;;
6791;SDS011;3433;48.730;9.108;2023-03-21T11:10:24;2.10;;;1.43;;
6791;SDS011;3433;48.730;9.108;2023-03-21T11:13:16;1.27;;;0.80;;
6791;SDS011;3433;48.730;9.108;2023-03-21T11:16:06;1.73;;;1.03;;
6791;SDS011;3433;48.730;9.108;2023-03-21T11:18:56;2.20;;;1.67;;
6791;SDS011;3433;48.730;9.108;2023-03-21T11:21:48;3.20;;;1.40;;
6791;SDS011;3433;48.730;9.108;2023-03-21T11:24:35;1.50;;;1.23;;
6791;SDS011;3433;48.730;9.108;2023-03-21T11:27:22;1.40;;;1.20;;
6791;SDS011;3433;48.730;9.108;2023-03-21T11:30:17;1.63;;;1.10;;
6791;SDS011;3433;48.730;9.108;2023-03-21T11:33:07;1.33;;;1.23;;
6791;SDS011;3433;48.730;9.108;2023-03-21T11:35:58;2.20;;;1.47;;
6791;SDS011;3433;48.730;9.108;2023-03-21T11:38:49;1.40;;;1.30;;
6791;SDS011;3433;48.730;9.108;2023-03-21T11:41:39;3.53;;;1.73;;
6791;SDS011;3433;48.730;9.108;2023-03-21T11:44:29;2.27;;;1.83;;
6791;SDS011;3433;48.730;9.108;2023-03-21T11:47:17;3.03;;;2.30;;
6791;SDS011;3433;48.730;9.108;2023-03-21T11:50:12;2.60;;;1.67;;
6791;SDS011;3433;48.730;9.108;2023-03-21T11:53:15;2.70;;;1.90;;
6791;SDS011;3433;48.730;9.108;2023-03-21T11:56:17;4.70;;;2.53;;
6791;SDS011;3433;48.730;9.108;2023-03-21T11:59:12;1.80;;;1.70;;
6791;SDS011;3433;48.730;9.108;2023-03-21T12:02:26;3.40;;;2.10;;
6791;SDS011;3433;48.730;9.108;2023-03-21T12:05:40;3.80;;;3.10;;
6791;SDS011;3433;48.730;9.108;2023-03-21T12:08:35;2.10;;;2.00;;
6791;SDS011;3433;48.730;9.108;2023-03-21T12:11:32;2.60;;;2.40;;
6791;SDS011;3433;48.730;9.108;2023-03-21T12:14:28;2.90;;;1.77;;
6791;SDS011;3433;48.730;9.108;2023-03-21T12:17:24;2.07;;;1.87;;
6791;SDS011;3433;48.730;9.108;2023-03-21T12:20:28;2.43;;;2.23;;
6791;SDS011;3433;48.730;9.108;2023-03-21T12:23:33;4.10;;;2.40;;
6791;SDS011;3433;48.730;9.108;2023-03-21T12:26:28;2.70;;;1.83;;
6791;SDS011;3433;48.730;9.108;2023-03-21T12:29:28;1.53;;;1.43;;
6791;SDS011;3433;48.730;9.108;2023-03-21T12:32:29;2.10;;;1.90;;
6791;SDS011;3433;48.730;9.108;2023-03-21T12:35:28;2.60;;;1.67;;
6791;SDS011;3433;48.730;9.108;2023-03-21T12:38:24;2.70;;;1.77;;
6791;SDS011;3433;48.730;9.108;2023-03-21T12:41:22;2.10;;;1.90;;
6791;SDS011;3433;48.730;9.108;2023-03-21T12:44:13;2.53;;;1.37;;
6791;SDS011;3433;48.730;9.108;2023-03-21T12:47:03;1.83;;;1.50;;
6791;SDS011;3433;48.730;9.108;2023-03-21T12:49:53;1.50;;;1.40;;
6791;SDS011;3433;48.730;9.108;2023-03-21T12:52:46;1.60;;;1.50;;
6791;SDS011;3433;48.730;9.108;2023-03-21T12:55:37;2.00;;;1.50;;
6791;SDS011;3433;48.730;9.108;2023-03-21T12:58:26;1.73;;;1.13;;
6791;SDS011;3433;48.730;9.108;2023-03-21T13:01:18;2.23;;;1.70;;
6791;SDS011;3433;48.730;9.108;2023-03-21T13:04:14;1.50;;;1.40;;
6791;SDS011;3433;48.730;9.108;2023-03-21T13:07:18;3.03;;;1.50;;
6791;SDS011;3433;48.730;9.108;2023-03-21T13:10:11;1.27;;;1.17;;
6791;SDS011;3433;48.730;9.108;2023-03-21T13:13:03;1.77;;;1.47;;
6791;SDS011;3433;48.730;9.108;2023-03-21T13:15:59;1.30;;;1.20;;
6791;SDS011;3433;48.730;9.108;2023-03-21T13:19:01;2.10;;;1.17;;
6791;SDS011;3433;48.730;9.108;2023-03-21T13:21:59;1.10;;;1.00;;
6791;SDS011;3433;48.730;9.108;2023-03-21T13:24:56;4.00;;;1.60;;
6791;SDS011;3433;48.730;9.108;2023-03-21T13:27:49;1.13;;;1.00;;
6791;SDS011;3433;48.730;9.108;2023-03-21T13:30:38;4.00;;;2.23;;
6791;SDS011;3433;48.730;9.108;2023-03-21T13:33:27;4.20;;;2.40;;
6791;SDS011;3433;48.730;9.108;2023-03-21T13:36:20;2.50;;;2.00;;
6791;SDS011;3433;48.730;9.108;2023-03-21T13:39:12;1.10;;;0.97;;
6791;SDS011;3433;48.730;9.108;2023-03-21T13:42:04;1.53;;;0.80;;
6791;SDS011;3433;48.730;9.108;2023-03-21T13:44:59;1.30;;;0.80;;
6791;SDS011;3433;48.730;9.108;2023-03-21T13:47:52;1.30;;;0.93;;
6791;SDS011;3433;48.730;9.108;2023-03-21T13:50:50;1.10;;;0.80;;
6791;SDS011;3433;48.730;9.108;2023-03-21T13:53:41;0.93;;;0.73;;
6791;SDS011;3433;48.730;9.108;2023-03-21T13:56:48;1.10;;;0.87;;
6791;SDS011;3433;48.730;9.108;2023-03-21T13:59:39;1.53;;;0.80;;
6791;SDS011;3433;48.730;9.108;2023-03-21T14:02:28;1.20;;;1.10;;
6791;SDS011;3433;48.730;9.108;2023-03-21T14:05:19;1.47;;;1.13;;
6791;SDS011;3433;48.730;9.108;2023-03-21T14:08:08;3.43;;;1.53;;
6791;SDS011;3433;48.730;9.108;2023-03-21T14:11:04;2.00;;;1.80;;
6791;SDS011;3433;48.730;9.108;2023-03-21T14:13:54;2.17;;;1.40;;
6791;SDS011;3433;48.730;9.108;2023-03-21T14:16:44;2.60;;;1.67;;
6791;SDS011;3433;48.730;9.108;2023-03-21T14:19:31;2.60;;;1.50;;
6791;SDS011;3433;48.730;9.108;2023-03-21T14:22:19;2.03;;;1.57;;
6791;SDS011;3433;48.730;9.108;2023-03-21T14:25:06;1.70;;;1.60;;
6791;SDS011;3433;48.730;9.108;2023-03-21T14:27:59;2.13;;;1.70;;
6791;SDS011;3433;48.730;9.108;2023-03-21T14:30:50;3.70;;;1.83;;
6791;SDS011;3433;48.730;9.108;2023-03-21T14:33:40;1.90;;;1.40;;
6791;SDS011;3433;48.730;9.108;2023-03-21T14:36:32;3.00;;;2.10;;
6791;SDS011;3433;48.730;9.108;2023-03-21T14:39:26;4.60;;;1.93;;
6791;SDS011;3433;48.730;9.108;2023-03-21T14:42:14;3.33;;;1.90;;
6791;SDS011;3433;48.730;9.108;2023-03-21T14:45:13;2.50;;;2.13;;
6791;SDS011;3433;48.730;9.108;2023-03-21T14:48:03;2.40;;;2.20;;
6791;SDS011;3433;48.730;9.108;2023-03-21T14:50:51;2.53;;;2.00;;
6791;SDS011;3433;48.730;9.108;2023-03-21T14:53:40;2.23;;;2.03;;
6791;SDS011;3433;48.730;9.108;2023-03-21T14:56:37;2.50;;;2.07;;
6791;SDS011;3433;48.730;9.108;2023-03-21T14:59:25;3.20;;;1.90;;
6791;SDS011;3433;48.730;9.108;2023-03-21T15:02:20;2.50;;;1.50;;
6791;SDS011;3433;48.730;9.108;2023-03-21T15:05:13;6.70;;;5.37;;
6791;SDS011;3433;48.730;9.108;2023-03-21T15:08:06;2.47;;;1.63;;
6791;SDS011;3433;48.730;9.108;2023-03-21T15:10:55;1.40;;;1.27;;
6791;SDS011;3433;48.730;9.108;2023-03-21T15:13:44;2.33;;;2.13;;
6791;SDS011;3433;48.730;9.108;2023-03-21T15:16:34;2.57;;;1.80;;
6791;SDS011;3433;48.730;9.108;2023-03-21T15:19:25;1.60;;;1.50;;
6791;SDS011;3433;48.730;9.108;2023-03-21T15:22:16;1.93;;;1.53;;
6791;SDS011;3433;48.730;9.108;2023-03-21T15:25:11;2.07;;;1.67;;
6791;SDS011;3433;48.730;9.108;2023-03-21T15:28:03;1.60;;;1.50;;
6791;SDS011;3433;48.730;9.108;2023-03-21T15:30:51;2.20;;;1.57;;
6791;SDS011;3433;48.730;9.108;2023-03-21T15:33:39;2.27;;;2.07;;
6791;SDS011;3433;48.730;9.108;2023-03-21T15:36:31;2.50;;;1.87;;
6791;SDS011;3433;48.730;9.108;2023-03-21T15:39:22;2.83;;;2.53;;
6791;SDS011;3433;48.730;9.108;2023-03-21T15:42:24;3.30;;;2.07;;
6791;SDS011;3433;48.730;9.108;2023-03-21T15:45:23;2.90;;;2.40;;
6791;SDS011;3433;48.730;9.108;2023-03-21T15:48:12;5.37;;;2.10;;
6791;SDS011;3433;48.730;9.108;2023-03-21T15:51:00;6.57;;;2.60;;
6791;SDS011;3433;48.730;9.108;2023-03-21T15:53:51;7.53;;;2.93;;
6791;SDS011;3433;48.730;9.108;2023-03-21T15:56:39;3.80;;;2.63;;
6791;SDS011;3433;48.730;9.108;2023-03-21T15:59:31;6.43;;;2.93;;
6791;SDS011;3433;48.730;9.108;2023-03-21T16:02:21;3.35;;;3.00;;
6791;SDS011;3433;48.730;9.108;2023-03-21T16:05:18;3.87;;;2.90;;
6791;SDS011;3433;48.730;9.108;2023-03-21T16:08:17;4.03;;;2.90;;
6791;SDS011;3433;48.730;9.108;2023-03-21T16:11:10;7.13;;;3.70;;
6791;SDS011;3433;48.730;9.108;2023-03-21T16:14:02;5.07;;;3.30;;
6791;SDS011;3433;48.730;9.108;2023-03-21T16:16:49;3.80;;;3.10;;
6791;SDS011;3433;48.730;9.108;2023-03-21T16:19:37;3.83;;;3.05;;
6791;SDS011;3433;48.730;9.108;2023-03-21T16:22:26;3.90;;;3.40;;
6791;SDS011;3433;48.730;9.108;2023-03-21T16:25:19;5.40;;;3.27;;
6791;SDS011;3433;48.730;9.108;2023-03-21T16:28:10;4.70;;;3.03;;
6791;SDS011;3433;48.730;9.108;2023-03-21T16:31:00;5.27;;;3.53;;
6791;SDS011;3433;48.730;9.108;2023-03-21T16:33:47;7.63;;;3.00;;